ADDS METAR Data INFO
IDs: Format: Raw Decoded Include TAF

Data at: 1154 UTC 23 Jun 2018

KINF 231135Z AUTO 00000KT 5SM BR SCT024 24/24 A3001 RMK AO2
KINF 231115Z AUTO 00000KT 4SM BR SCT024 SCT032 SCT038 23/23 A3000 RMK AO2
KINF 231055Z AUTO 00000KT 3SM BR SCT024 BKN032 SCT047 23/23 A2999 RMK AO2
KINF 231035Z AUTO 00000KT 2SM BR CLR 23/23 A2999 RMK AO2
KINF 231015Z AUTO 00000KT 3SM BR CLR 23/23 A2998 RMK AO2
KINF 230955Z AUTO 00000KT 3SM BR CLR 23/23 A2998 RMK AO2
KINF 230935Z AUTO 00000KT 3SM BR CLR 23/23 A2998 RMK AO2
KINF 230915Z AUTO 00000KT 5SM BR CLR 23/23 A2997 RMK AO2
KINF 230855Z AUTO 00000KT 4SM BR CLR 23/23 A2998 RMK AO2
KINF 230835Z AUTO 00000KT 5SM BR CLR 23/23 A2997 RMK AO2
KINF 230815Z AUTO 19003KT 5SM BR CLR 23/23 A2997 RMK AO2
KINF 230755Z AUTO 00000KT 5SM BR CLR 23/23 A2997 RMK AO2
KINF 230735Z AUTO 00000KT 5SM BR CLR 24/24 A2997 RMK AO2
KINF 230715Z AUTO 00000KT 5SM BR CLR 23/23 A2997 RMK AO2
KINF 230655Z AUTO 00000KT 7SM SCT024 SCT030 SCT036 24/24 A2997 RMK AO2
KINF 230635Z AUTO 00000KT 7SM SCT024 SCT033 25/25 A2998 RMK AO2
KINF 230615Z AUTO 00000KT 7SM SCT022 24/24 A2998 RMK AO2
KINF 230555Z AUTO 00000KT 7SM CLR 25/25 A2998 RMK AO2
KINF 230535Z AUTO 00000KT 7SM CLR 25/25 A2998 RMK AO2
KINF 230515Z AUTO 00000KT 7SM CLR 25/25 A2998 RMK AO2
KINF 230455Z AUTO 00000KT 7SM CLR 25/25 A2999 RMK AO2
KINF 230435Z AUTO 00000KT 10SM CLR 25/25 A2999 RMK AO2
KINF 230415Z AUTO 00000KT 7SM CLR 25/25 A3000 RMK AO2
KINF 230355Z AUTO 00000KT 7SM CLR 26/26 A3000 RMK AO2
KINF 230255Z AUTO 00000KT 7SM CLR 25/25 A2999 RMK AO2
KINF 230235Z AUTO 00000KT 7SM CLR 26/26 A2999 RMK AO2
KINF 230215Z AUTO 00000KT 7SM CLR 26/26 A2998 RMK AO2
KINF 230155Z AUTO 00000KT 10SM CLR 26/26 A2997 RMK AO2
KINF 230135Z AUTO 00000KT 7SM CLR 26/26 A2996 RMK AO2
KINF 230115Z AUTO 00000KT 7SM CLR 27/26 A2996 RMK AO2
KINF 230055Z AUTO 00000KT 7SM CLR 27/26 A2996 RMK AO2
KINF 230035Z AUTO 00000KT 7SM CLR 28/26 A2996 RMK AO2
KINF 230015Z AUTO 00000KT 7SM CLR 28/26 A2996 RMK AO2 LTG DSNT E
KINF 222355Z AUTO 25003KT 7SM SCT029 29/25 A2995 RMK AO2
KINF 222335Z AUTO 30003KT 7SM SCT029 30/25 A2994 RMK AO2 LTG DSNT NE
KINF 222315Z AUTO 29004KT 7SM CLR 30/25 A2994 RMK AO2
KINF 222255Z AUTO 30004KT 7SM CLR 30/25 A2994 RMK AO2 LTG DSNT E
KINF 222235Z AUTO 27003KT 7SM CLR 31/25 A2994 RMK AO2 LTG DSNT NE AND E
KINF 222215Z AUTO 29004KT 7SM CLR 31/24 A2993 RMK AO2 LTG DSNT E
KINF 222155Z AUTO 29005KT 7SM SCT034 31/25 A2993 RMK AO2 LTG DSNT NE AND E
KINF 222135Z AUTO 26003KT 7SM SCT034 31/25 A2994 RMK AO2 LTG DSNT NE AND E
KINF 222115Z AUTO 29004KT 7SM SCT034 SCT045 32/26 A2994 RMK AO2 LTG DSNT NE AND E
KINF 222055Z AUTO 26004KT 7SM SCT036 SCT045 32/26 A2994 RMK AO2 LTG DSNT NE
KINF 222035Z AUTO 26006KT 7SM SCT038 32/25 A2994 RMK AO2 LTG DSNT NE AND SE
KINF 222015Z AUTO 30006KT 7SM SCT040 SCT049 32/25 A2994 RMK AO2 LTG DSNT SE
KINF 221955Z AUTO 26006KT 7SM SCT038 SCT049 32/25 A2994 RMK AO2
KINF 221935Z AUTO 25006KT 7SM SCT038 32/25 A2996 RMK AO2
KINF 221915Z AUTO 27006KT 7SM SCT034 32/25 A2996 RMK AO2
KINF 221855Z AUTO 25007KT 230V290 7SM SCT034 SCT041 SCT048 32/25 A2996 RMK AO2
KINF 221835Z AUTO 25006KT 7SM SCT038 BKN048 BKN060 32/26 A2997 RMK AO2
KINF 221815Z AUTO 26007KT 220V300 7SM SCT036 SCT046 SCT055 32/25 A2997 RMK AO2
KINF 221755Z AUTO 27006KT 7SM SCT038 SCT047 SCT055 32/26 A2998 RMK AO2
KINF 221735Z AUTO 26005KT 7SM SCT039 SCT070 31/26 A2998 RMK AO2
KINF 221715Z AUTO 25004KT 7SM SCT035 SCT044 SCT070 32/26 A2998 RMK AO2
KINF 221655Z AUTO 31005KT 7SM SCT032 BKN055 BKN070 31/26 A2998 RMK AO2
KINF 221635Z AUTO 29003KT 7SM BKN032 BKN070 30/26 A2999 RMK AO2
KINF 221615Z AUTO 31004KT 7SM SCT030 SCT037 SCT050 30/27 A2999 RMK AO2
KINF 221555Z AUTO 24003KT 7SM -RA SCT028 SCT038 BKN095 28/27 A2998 RMK AO2 P0006
KINF 221535Z AUTO 30004KT 10SM SCT029 SCT044 BKN095 31/26 A2999 RMK AO2
KINF 221515Z AUTO 26004KT 7SM SCT029 BKN043 BKN065 31/26 A2999 RMK AO2 LTG DSNT NW
KINF 221455Z AUTO 00000KT 7SM SCT029 SCT036 BKN044 31/26 A2999 RMK AO2
KINF 221435Z AUTO 00000KT 7SM SCT027 SCT050 29/26 A2999 RMK AO2
KINF 221415Z AUTO 23006KT 7SM SCT025 SCT050 30/26 A2999 RMK AO2 LTG DSNT NE
KINF 221355Z AUTO 29004KT 5SM HZ SCT021 SCT027 30/26 A2999 RMK AO2
KINF 221335Z AUTO 25005KT 7SM SCT023 30/26 A2999 RMK AO2
KINF 221315Z AUTO 25004KT 7SM SCT020 29/27 A3000 RMK AO2
KINF 221255Z AUTO 00000KT 10SM CLR 28/27 A3000 RMK AO2
KINF 221235Z AUTO 00000KT 10SM CLR 27/27 A3000 RMK AO2
KINF 221215Z AUTO 00000KT 10SM CLR 26/26 A2999 RMK AO2
KINF 221155Z AUTO 00000KT 7SM CLR 25/25 A2999 RMK AO2
KINF 221135Z AUTO 00000KT 7SM CLR 24/24 A2998 RMK AO2
KINF 221115Z AUTO 00000KT 5SM BR CLR 23/23 A2997 RMK AO2
KINF 221055Z AUTO 00000KT 2SM BR CLR 23/23 A2996 RMK AO2
KINF 221035Z AUTO 00000KT 5SM BR CLR 23/23 A2996 RMK AO2
KINF 221015Z AUTO 00000KT 4SM BR CLR 23/23 A2995 RMK AO2
KINF 220955Z AUTO 00000KT 4SM BR CLR 24/24 A2995 RMK AO2
KINF 220935Z AUTO 00000KT 7SM CLR 24/24 A2993 RMK AO2
KINF 220915Z AUTO 00000KT 4SM BR CLR 24/24 A2993 RMK AO2
KINF 220855Z AUTO 00000KT 4SM BR CLR 24/24 A2993 RMK AO2
KINF 220835Z AUTO 00000KT 4SM BR CLR 24/24 A2992 RMK AO2
KINF 220755Z AUTO 00000KT 5SM BR CLR 24/24 A2992 RMK AO2
KINF 220735Z AUTO 00000KT 7SM CLR 24/24 A2992 RMK AO2
KINF 220715Z AUTO 00000KT 5SM BR CLR 24/24 A2992 RMK AO2
KINF 220655Z AUTO 00000KT 5SM BR CLR 25/25 A2992 RMK AO2
KINF 220635Z AUTO 00000KT 5SM BR CLR 25/25 A2992 RMK AO2
KINF 220615Z AUTO 00000KT 10SM CLR 25/25 A2993 RMK AO2
KINF 220555Z AUTO 00000KT 10SM CLR 25/25 A2993 RMK AO2
KINF 220535Z AUTO 00000KT 10SM CLR 25/25 A2993 RMK AO2
KINF 220515Z AUTO 00000KT 7SM CLR 25/25 A2994 RMK AO2
KINF 220455Z AUTO 00000KT 10SM CLR 25/25 A2995 RMK AO2
KINF 220435Z AUTO 00000KT 10SM CLR 25/25 A2996 RMK AO2
KINF 220415Z AUTO 00000KT 10SM CLR 25/25 A2995 RMK AO2
KINF 220355Z AUTO 00000KT 10SM CLR 26/26 A2996 RMK AO2
KINF 220335Z AUTO 00000KT 10SM CLR 26/26 A2997 RMK AO2
KINF 220315Z AUTO 00000KT 10SM CLR 26/26 A2996 RMK AO2
KINF 220255Z AUTO 00000KT 10SM CLR 26/26 A2997 RMK AO2
KINF 220235Z AUTO 00000KT 10SM CLR 26/26 A2997 RMK AO2
KINF 220215Z AUTO 00000KT 10SM CLR 26/26 A2997 RMK AO2
KINF 220155Z AUTO 00000KT 10SM CLR 26/26 A2996 RMK AO2
KINF 220135Z AUTO 00000KT 10SM SCT020 SCT026 26/26 A2996 RMK AO2
KINF 220115Z AUTO 00000KT 10SM BKN020 BKN026 26/26 A2995 RMK AO2
KINF 220055Z AUTO 00000KT 10SM BKN020 BKN026 26/26 A2994 RMK AO2
KINF 220035Z AUTO 00000KT 10SM SCT018 27/27 A2994 RMK AO2
KINF 220015Z AUTO 00000KT 10SM CLR 28/27 A2993 RMK AO2
KINF 212355Z AUTO 00000KT 10SM CLR 28/26 A2992 RMK AO2